Time;durP1;ratioP1;P1;durP2;ratioP2;P2;SDS_P1;SDS_P2;PMS_P1;PMS_P2;Temp;Humidity;BMP_temperature;BMP_pressure;BME280_temperature;BME280_humidity;BME280_pressure;Samples;Min_cycle;Max_cycle;Signal;HPM_P1;HPM_P2
2022/01/29 00:01:04;;;;;;;9.40;3.88;;;102.70;2227.20;;;;;;5073678;28;20024;-55
2022/01/29 00:03:35;;;;;;;12.13;7.00;;;102.70;2227.20;;;;;;5073790;28;20390;-55
2022/01/29 00:06:02;;;;;;;9.57;5.35;;;102.50;2227.20;;;;;;5073390;28;20029;-62
2022/01/29 00:08:28;;;;;;;7.38;4.28;;;102.60;2227.20;;;;;;5073274;28;20029;-56
2022/01/29 00:11:01;;;;;;;12.73;6.30;;;102.90;2227.20;;;;;;5073418;28;20090;-56
2022/01/29 00:13:27;;;;;;;6.97;4.20;;;102.70;2227.20;;;;;;5073123;28;20028;-56
2022/01/29 00:15:52;;;;;;;8.48;4.38;;;102.80;2227.20;;;;;;5073462;28;20032;-57
2022/01/29 00:18:18;;;;;;;10.45;4.72;;;102.70;2227.20;;;;;;5073043;28;20035;-58
2022/01/29 00:20:44;;;;;;;15.93;9.63;;;102.80;2227.20;;;;;;5073530;28;20044;-61
2022/01/29 00:23:10;;;;;;;7.90;4.53;;;102.70;2227.20;;;;;;5073403;28;20029;-62
2022/01/29 00:25:36;;;;;;;15.45;8.82;;;102.60;2227.20;;;;;;5072916;28;20032;-62
2022/01/29 00:28:02;;;;;;;11.93;6.95;;;102.80;2227.20;;;;;;5073245;28;20074;-63
2022/01/29 00:30:36;;;;;;;10.18;4.35;;;102.80;2227.20;;;;;;5072796;28;20475;-54
2022/01/29 00:33:02;;;;;;;7.10;4.50;;;102.60;2227.20;;;;;;5072977;28;20540;-55
2022/01/29 00:35:27;;;;;;;20.98;12.10;;;102.50;2227.20;;;;;;5072666;28;20036;-55
2022/01/29 00:37:53;;;;;;;17.65;8.07;;;102.50;2227.20;;;;;;5072862;28;20457;-55
2022/01/29 00:40:20;;;;;;;8.35;4.75;;;102.50;2227.20;;;;;;5072907;28;20052;-62
2022/01/29 00:42:46;;;;;;;12.15;7.13;;;102.40;2227.20;;;;;;5072700;28;20024;-54
2022/01/29 00:45:12;;;;;;;6.63;4.60;;;77.70;2227.20;;;;;;5072767;28;20025;-55
2022/01/29 00:47:37;;;;;;;8.40;4.88;;;77.70;2227.20;;;;;;5072324;28;20021;-56
2022/01/29 00:50:04;;;;;;;15.80;8.98;;;77.70;2227.20;;;;;;5072549;28;20055;-56
2022/01/29 00:52:29;;;;;;;23.65;10.82;;;102.40;2227.20;;;;;;5072754;28;20028;-56
2022/01/29 00:54:55;;;;;;;9.15;4.40;;;102.40;2227.20;;;;;;5072530;28;20549;-55
2022/01/29 00:57:21;;;;;;;14.70;7.57;;;77.70;2227.20;;;;;;5072583;28;20429;-62
2022/01/29 00:59:47;;;;;;;10.52;4.82;;;77.70;2227.20;;;;;;5072210;28;20116;-55
2022/01/29 01:02:13;;;;;;;17.42;6.60;;;77.70;2227.20;;;;;;5070932;28;20120;-55
2022/01/29 01:04:39;;;;;;;11.45;6.90;;;77.70;2227.20;;;;;;5072354;28;20048;-55
2022/01/29 01:07:09;;;;;;;23.35;13.52;;;77.70;2227.20;;;;;;5072268;28;20417;-55
2022/01/29 01:09:36;;;;;;;16.00;9.85;;;77.70;2227.20;;;;;;5072390;28;20023;-55
2022/01/29 01:12:02;;;;;;;13.80;6.40;;;77.60;2227.20;;;;;;5072322;28;20025;-62
2022/01/29 01:14:28;;;;;;;14.60;7.78;;;102.40;2227.20;;;;;;5072052;28;20467;-55
2022/01/29 01:16:54;;;;;;;17.95;7.68;;;77.70;2227.20;;;;;;5072324;28;20075;-55
2022/01/29 01:19:25;;;;;;;9.82;6.05;;;102.40;2227.20;;;;;;5072004;28;20044;-55
2022/01/29 01:21:52;;;;;;;12.60;6.30;;;77.70;2227.20;;;;;;5072449;28;20039;-55
2022/01/29 01:24:18;;;;;;;10.45;5.25;;;77.60;2227.20;;;;;;5072081;28;20095;-55
2022/01/29 01:26:44;;;;;;;12.02;6.60;;;77.70;2227.20;;;;;;5072172;28;20020;-63
2022/01/29 01:29:10;;;;;;;25.30;13.90;;;77.70;2227.20;;;;;;5072129;28;20108;-55
2022/01/29 01:31:37;;;;;;;21.45;11.55;;;77.60;2227.20;;;;;;5071788;28;20115;-55
2022/01/29 01:34:04;;;;;;;14.05;5.32;;;77.70;2227.20;;;;;;5071839;28;20023;-62
2022/01/29 01:36:31;;;;;;;24.25;11.68;;;77.70;2227.20;;;;;;5072069;28;20055;-62
2022/01/29 01:39:05;;;;;;;7.65;4.20;;;77.70;2227.20;;;;;;5071530;28;20036;-55
2022/01/29 01:41:37;;;;;;;18.65;8.48;;;77.70;2227.20;;;;;;5071871;28;20032;-55
2022/01/29 01:44:04;;;;;;;10.82;5.13;;;102.50;2227.20;;;;;;5071847;28;20074;-60
2022/01/29 01:46:30;;;;;;;38.63;18.02;;;102.40;2227.20;;;;;;5071563;28;20028;-63
2022/01/29 01:48:57;;;;;;;38.03;17.30;;;77.70;2227.20;;;;;;5071039;28;20509;-55
2022/01/29 01:51:23;;;;;;;10.18;5.15;;;102.40;2227.20;;;;;;5071492;28;20044;-63
2022/01/29 01:53:49;;;;;;;13.90;7.15;;;102.40;2227.20;;;;;;5071128;28;20028;-55
2022/01/29 01:56:14;;;;;;;39.03;20.63;;;77.70;2227.20;;;;;;5071172;28;20033;-55
2022/01/29 01:58:40;;;;;;;13.57;7.95;;;102.40;2227.20;;;;;;5071476;28;20021;-62
2022/01/29 02:01:06;;;;;;;18.20;9.65;;;77.70;2227.20;;;;;;5071421;28;20032;-54
2022/01/29 02:03:32;;;;;;;69.65;31.67;;;102.40;2227.20;;;;;;5071270;28;20024;-55
2022/01/29 02:05:58;;;;;;;33.75;16.67;;;102.40;2227.20;;;;;;5071006;28;20037;-56
2022/01/29 02:08:24;;;;;;;24.10;7.20;;;102.50;2227.20;;;;;;5070827;28;20031;-58
2022/01/29 02:10:51;;;;;;;7.50;4.45;;;102.40;2227.20;;;;;;5071297;28;20040;-55
2022/01/29 02:13:17;;;;;;;16.02;7.55;;;102.40;2227.20;;;;;;5069922;28;20032;-55
2022/01/29 02:15:43;;;;;;;8.73;4.18;;;102.40;2227.20;;;;;;5071204;28;20035;-62
2022/01/29 02:18:15;;;;;;;17.58;7.78;;;102.50;2227.20;;;;;;5070485;28;20029;-55
2022/01/29 02:20:44;;;;;;;94.70;43.42;;;102.40;2227.20;;;;;;5071033;28;20040;-55
2022/01/29 02:23:09;;;;;;;45.05;20.92;;;102.60;2227.20;;;;;;5070980;28;20040;-56
2022/01/29 02:25:48;;;;;;;8.30;4.05;;;102.60;2227.20;;;;;;5070782;28;20029;-54
2022/01/29 02:28:16;;;;;;;10.10;5.05;;;102.50;2227.20;;;;;;5070766;28;20488;-55
2022/01/29 02:30:47;;;;;;;19.55;8.70;;;102.50;2227.20;;;;;;5070635;28;20059;-55
2022/01/29 02:33:15;;;;;;;12.48;7.00;;;102.40;2227.20;;;;;;5070940;28;20130;-61
2022/01/29 02:35:48;;;;;;;25.58;12.30;;;102.50;2227.20;;;;;;5070797;28;20024;-55
2022/01/29 02:38:16;;;;;;;13.52;6.22;;;102.50;2227.20;;;;;;5070567;28;20462;-63
2022/01/29 02:40:48;;;;;;;22.73;12.20;;;102.60;2227.20;;;;;;5070574;28;20063;-62
2022/01/29 02:43:20;;;;;;;11.55;5.25;;;102.50;2227.20;;;;;;5070556;28;20470;-55
2022/01/29 02:45:50;;;;;;;15.88;7.43;;;102.60;2227.20;;;;;;5070426;28;20113;-62
2022/01/29 02:48:16;;;;;;;8.48;5.30;;;102.60;2227.20;;;;;;5070002;28;20033;-55
2022/01/29 02:50:42;;;;;;;6.18;3.15;;;102.50;2227.20;;;;;;5069240;28;20052;-55
2022/01/29 02:53:08;;;;;;;10.38;4.90;;;102.60;2227.20;;;;;;5070228;28;20109;-55
2022/01/29 02:55:34;;;;;;;9.02;4.53;;;102.80;2227.20;;;;;;5070635;28;20028;-56
2022/01/29 02:58:01;;;;;;;7.25;3.80;;;102.70;2227.20;;;;;;5070179;28;20032;-55
2022/01/29 03:00:27;;;;;;;9.02;4.30;;;102.70;2227.20;;;;;;5070340;28;20437;-55
2022/01/29 03:02:53;;;;;;;8.05;4.22;;;102.70;2227.20;;;;;;5070452;28;20055;-55
2022/01/29 03:05:19;;;;;;;22.95;11.02;;;102.60;2227.20;;;;;;5070221;28;20478;-58
2022/01/29 03:07:45;;;;;;;17.33;6.57;;;102.60;2227.20;;;;;;5070055;28;20478;-55
2022/01/29 03:10:11;;;;;;;8.35;3.72;;;102.70;2227.20;;;;;;5069987;28;20078;-63
2022/01/29 03:12:41;;;;;;;24.88;11.52;;;102.80;2227.20;;;;;;5070274;28;20035;-55
2022/01/29 03:15:08;;;;;;;19.67;8.65;;;102.60;2227.20;;;;;;5070037;28;20029;-55
2022/01/29 03:17:34;;;;;;;6.32;4.03;;;102.60;2227.20;;;;;;5070212;28;20501;-54
2022/01/29 03:20:00;;;;;;;13.18;4.90;;;102.70;2227.20;;;;;;5070238;28;20470;-55
2022/01/29 03:22:25;;;;;;;10.35;4.43;;;102.70;2227.20;;;;;;5069833;28;20039;-61
2022/01/29 03:24:51;;;;;;;19.27;5.05;;;102.60;2227.20;;;;;;5069647;28;20067;-54
2022/01/29 03:27:17;;;;;;;16.88;6.53;;;102.50;2227.20;;;;;;5069805;28;20033;-55
2022/01/29 03:29:43;;;;;;;14.63;7.15;;;102.40;2227.20;;;;;;5070062;28;20115;-55
2022/01/29 03:32:09;;;;;;;27.42;12.77;;;102.40;2227.20;;;;;;5070056;28;20393;-55
2022/01/29 03:34:35;;;;;;;7.80;4.35;;;102.40;2227.20;;;;;;5069979;28;20036;-56
2022/01/29 03:37:01;;;;;;;17.13;7.22;;;102.40;2227.20;;;;;;5070109;28;20027;-55
2022/01/29 03:39:28;;;;;;;21.30;9.75;;;102.50;2227.20;;;;;;5069701;28;20060;-55
2022/01/29 03:42:01;;;;;;;7.18;3.67;;;102.50;2227.20;;;;;;5069712;28;20070;-55
2022/01/29 03:44:27;;;;;;;73.65;33.17;;;102.40;2227.20;;;;;;5069839;28;20422;-55
2022/01/29 03:46:53;;;;;;;13.48;7.43;;;102.50;2227.20;;;;;;5070026;28;20086;-56
2022/01/29 03:49:18;;;;;;;6.95;3.90;;;102.50;2227.20;;;;;;5069354;28;20387;-55
2022/01/29 03:51:44;;;;;;;37.08;13.80;;;102.50;2227.20;;;;;;5069506;28;20090;-55
2022/01/29 03:54:10;;;;;;;7.72;4.57;;;102.50;2227.20;;;;;;5069801;28;20032;-62
2022/01/29 03:56:36;;;;;;;18.70;7.13;;;102.50;2227.20;;;;;;5069676;28;20037;-55
2022/01/29 03:59:02;;;;;;;11.18;4.03;;;102.50;2227.20;;;;;;5069692;28;20032;-62
2022/01/29 04:01:27;;;;;;;11.13;3.67;;;102.60;2227.20;;;;;;5069494;28;20440;-55
2022/01/29 04:03:53;;;;;;;16.10;6.88;;;102.60;2227.20;;;;;;5069734;28;20032;-55
2022/01/29 04:06:19;;;;;;;38.30;16.58;;;102.60;2227.20;;;;;;5069589;28;20020;-62
2022/01/29 04:08:45;;;;;;;43.40;21.42;;;102.50;2227.20;;;;;;5069329;28;20146;-55
2022/01/29 04:11:13;;;;;;;23.75;10.75;;;102.60;2227.20;;;;;;5069635;28;20475;-56
2022/01/29 04:13:43;;;;;;;11.35;4.65;;;102.70;2227.20;;;;;;5069570;28;20375;-59
2022/01/29 04:16:10;;;;;;;25.73;11.50;;;102.80;2227.20;;;;;;5069703;28;20074;-59
2022/01/29 04:18:35;;;;;;;29.95;13.35;;;102.60;2227.20;;;;;;5069405;28;20028;-55
2022/01/29 04:21:02;;;;;;;22.40;11.15;;;102.70;2227.20;;;;;;5069727;28;20032;-55
2022/01/29 04:23:28;;;;;;;9.32;4.28;;;102.60;2227.20;;;;;;5069378;28;20039;-58
2022/01/29 04:25:54;;;;;;;16.52;7.00;;;102.60;2227.20;;;;;;5069704;28;20024;-55
2022/01/29 04:28:28;;;;;;;11.05;5.30;;;103.20;2227.20;;;;;;5069383;28;20021;-55
2022/01/29 04:30:59;;;;;;;29.23;12.27;;;102.70;2227.20;;;;;;5069484;28;20028;-62
2022/01/29 04:33:31;;;;;;;17.25;6.47;;;102.60;2227.20;;;;;;5069310;28;20025;-57
2022/01/29 04:36:02;;;;;;;22.83;11.27;;;102.70;2227.20;;;;;;5070595;28;20040;-55
2022/01/29 04:38:29;;;;;;;22.70;11.75;;;102.60;2227.20;;;;;;5072839;28;20030;-62
2022/01/29 04:40:57;;;;;;;19.77;8.27;;;102.60;2227.20;;;;;;5072636;28;20466;-56
2022/01/29 04:43:22;;;;;;;16.45;8.00;;;102.50;2227.20;;;;;;5073092;28;20055;-58
2022/01/29 04:45:48;;;;;;;8.85;4.05;;;102.60;2227.20;;;;;;5072756;28;20514;-55
2022/01/29 04:48:14;;;;;;;8.52;4.90;;;102.50;2227.20;;;;;;5072625;28;20024;-56
2022/01/29 04:50:40;;;;;;;30.35;15.95;;;77.70;2227.20;;;;;;5072508;28;20083;-62
2022/01/29 04:53:06;;;;;;;16.35;6.70;;;77.70;2227.20;;;;;;5072314;28;20059;-55
2022/01/29 04:55:33;;;;;;;55.88;26.33;;;102.40;2227.20;;;;;;5072540;28;20055;-63
2022/01/29 04:57:58;;;;;;;9.18;4.40;;;102.40;2227.20;;;;;;5072384;28;20040;-57
2022/01/29 05:00:24;;;;;;;18.55;8.10;;;102.50;2227.20;;;;;;5072498;28;20024;-55
2022/01/29 05:02:52;;;;;;;30.80;13.15;;;102.50;2227.20;;;;;;5072468;28;20536;-55
2022/01/29 05:05:19;;;;;;;13.95;6.00;;;102.60;2227.20;;;;;;5072170;28;20032;-56
2022/01/29 05:07:45;;;;;;;18.98;9.18;;;102.50;2227.20;;;;;;5072123;28;20043;-56
2022/01/29 05:10:12;;;;;;;8.63;5.20;;;102.60;2227.20;;;;;;5072230;28;20490;-56
2022/01/29 05:12:55;;;;;;;10.80;5.35;;;102.60;2227.20;;;;;;5072651;28;20043;-55
2022/01/29 05:28:52;;;;;;;20.90;12.50;;;102.40;2227.20;;;;;;5072134;28;20039;-56
2022/01/29 05:31:18;;;;;;;47.00;22.98;;;102.40;2227.20;;;;;;5071801;28;20045;-55
2022/01/29 05:33:43;;;;;;;24.85;12.50;;;102.40;2227.20;;;;;;5072252;28;20029;-64
2022/01/29 05:36:09;;;;;;;10.30;4.80;;;102.40;2227.20;;;;;;5071812;28;20120;-64
2022/01/29 05:38:35;;;;;;;14.90;8.27;;;102.40;2227.20;;;;;;5071678;28;20471;-56
2022/01/29 05:41:03;;;;;;;9.13;3.70;;;77.70;2227.20;;;;;;5071905;28;20123;-56
2022/01/29 05:43:29;;;;;;;13.68;9.23;;;77.70;2227.20;;;;;;5071758;28;20108;-56
2022/01/29 05:45:55;;;;;;;8.35;4.45;;;77.70;2227.20;;;;;;5071446;28;20060;-56
2022/01/29 05:48:21;;;;;;;14.40;4.50;;;77.70;2227.20;;;;;;5071114;28;20103;-55
2022/01/29 05:50:46;;;;;;;19.30;7.47;;;102.40;2227.20;;;;;;5071379;28;20041;-55
2022/01/29 05:53:12;;;;;;;6.38;3.42;;;102.40;2227.20;;;;;;5071631;28;20025;-55
2022/01/29 05:55:38;;;;;;;9.48;3.80;;;102.40;2227.20;;;;;;5071323;28;20051;-56
2022/01/29 05:58:04;;;;;;;17.50;7.55;;;102.40;2227.20;;;;;;5071558;28;20028;-55
2022/01/29 06:00:30;;;;;;;13.30;4.95;;;102.40;2227.20;;;;;;5071347;28;20431;-55
2022/01/29 06:03:07;;;;;;;10.20;4.50;;;102.50;2227.20;;;;;;5071034;28;20028;-56
2022/01/29 06:05:33;;;;;;;10.63;5.97;;;102.50;2227.20;;;;;;5071344;28;20025;-55
2022/01/29 06:07:58;;;;;;;12.40;6.28;;;102.60;2227.20;;;;;;5071284;28;20025;-57
2022/01/29 06:10:25;;;;;;;10.57;5.18;;;102.60;2227.20;;;;;;5071134;28;20494;-57
2022/01/29 06:13:05;;;;;;;15.07;5.97;;;102.60;2227.20;;;;;;5071201;28;20021;-56
2022/01/29 06:15:39;;;;;;;10.05;5.03;;;102.60;2227.20;;;;;;5071204;28;20024;-62
2022/01/29 06:18:05;;;;;;;10.13;4.53;;;102.70;2227.20;;;;;;5071047;28;20028;-56
2022/01/29 06:20:31;;;;;;;9.52;5.03;;;102.50;2227.20;;;;;;5071025;28;20040;-56
2022/01/29 06:22:57;;;;;;;9.38;4.15;;;102.60;2227.20;;;;;;5070883;28;20035;-55
2022/01/29 06:25:24;;;;;;;9.23;5.43;;;102.60;2227.20;;;;;;5071006;28;20028;-60
2022/01/29 06:27:49;;;;;;;12.48;7.43;;;102.60;2227.20;;;;;;5070863;28;20509;-56
2022/01/29 06:30:15;;;;;;;12.98;5.72;;;102.60;2227.20;;;;;;5070684;28;20032;-56
2022/01/29 06:32:42;;;;;;;11.23;4.55;;;102.70;2227.20;;;;;;5070731;28;20017;-62
2022/01/29 06:35:08;;;;;;;14.55;5.10;;;102.80;2227.20;;;;;;5070635;28;20471;-56
2022/01/29 06:37:34;;;;;;;16.73;7.72;;;102.80;2227.20;;;;;;5070746;28;20074;-59
2022/01/29 06:40:00;;;;;;;10.88;4.15;;;102.80;2227.20;;;;;;5070728;28;20036;-56
2022/01/29 06:42:26;;;;;;;102.28;44.50;;;102.90;2227.20;;;;;;5070500;28;20031;-63
2022/01/29 06:44:52;;;;;;;55.58;48.75;;;103.00;2227.20;;;;;;5070513;28;20052;-62
2022/01/29 06:47:17;;;;;;;13.75;6.30;;;102.90;2227.20;;;;;;5070310;28;20056;-55
2022/01/29 06:49:43;;;;;;;22.95;13.75;;;102.90;2227.20;;;;;;5070431;28;20056;-56
2022/01/29 06:52:09;;;;;;;32.03;14.68;;;103.00;2227.20;;;;;;5070268;28;20040;-61
2022/01/29 06:54:34;;;;;;;58.78;29.45;;;103.00;2227.20;;;;;;5070382;28;20032;-56
2022/01/29 06:57:00;;;;;;;40.60;21.00;;;103.10;2227.20;;;;;;5070506;28;20382;-55
2022/01/29 06:59:26;;;;;;;37.47;19.90;;;103.00;2227.20;;;;;;5069628;28;20020;-56
2022/01/29 07:01:52;;;;;;;26.90;13.00;;;103.20;2227.20;;;;;;5070292;28;20528;-56
2022/01/29 07:04:17;;;;;;;24.42;13.52;;;103.20;2227.20;;;;;;5070226;28;20043;-56
2022/01/29 07:06:43;;;;;;;21.48;14.98;;;103.10;2227.20;;;;;;5070425;28;20047;-55
2022/01/29 07:09:09;;;;;;;14.57;7.68;;;103.30;2227.20;;;;;;5070319;28;20059;-60
2022/01/29 07:11:35;;;;;;;10.70;5.13;;;103.20;2227.20;;;;;;5070310;28;20119;-56
2022/01/29 07:14:02;;;;;;;14.05;5.82;;;103.30;2227.20;;;;;;5070175;28;20058;-62
2022/01/29 07:16:30;;;;;;;10.00;5.47;;;128.20;2252.80;;;;;;5070159;28;20115;-56
2022/01/29 07:18:55;;;;;;;14.73;8.18;;;128.20;2252.80;;;;;;5069919;28;20025;-56
2022/01/29 07:21:21;;;;;;;13.95;7.28;;;128.40;2252.80;;;;;;5070232;28;20112;-63
2022/01/29 07:23:47;;;;;;;21.48;10.05;;;128.80;2252.80;;;;;;5069868;28;20108;-55
2022/01/29 07:26:13;;;;;;;8.80;5.60;;;128.90;2252.80;;;;;;5070134;28;20028;-57
2022/01/29 07:28:39;;;;;;;14.75;8.75;;;153.60;2252.80;;;;;;5070058;28;20032;-59
2022/01/29 07:31:05;;;;;;;9.07;5.32;;;153.70;2252.80;;;;;;5069849;28;20040;-58
2022/01/29 07:33:31;;;;;;;12.40;6.82;;;153.60;2252.80;;;;;;5070423;28;20043;-57
2022/01/29 07:35:58;;;;;;;18.48;9.05;;;153.80;2227.20;;;;;;5069946;28;20386;-64
2022/01/29 07:38:24;;;;;;;14.80;11.77;;;153.60;2227.20;;;;;;5070010;28;20025;-57
2022/01/29 07:40:50;;;;;;;14.13;7.78;;;153.90;2201.60;;;;;;5069990;28;20035;-56
2022/01/29 07:43:16;;;;;;;14.00;6.22;;;153.80;2201.60;;;;;;5069865;28;20056;-56
2022/01/29 07:45:42;;;;;;;11.43;6.13;;;153.80;2176.00;;;;;;5069946;28;20487;-63
2022/01/29 07:48:08;;;;;;;9.30;4.40;;;153.80;2176.00;;;;;;5069957;28;20070;-56
2022/01/29 07:50:33;;;;;;;12.30;5.15;;;153.60;2227.20;;;;;;5068750;28;20052;-56
2022/01/29 07:52:59;;;;;;;9.43;3.60;;;154.00;2252.80;;;;;;5068469;28;20528;-54
2022/01/29 07:55:32;;;;;;;10.65;4.32;;;128.60;2252.80;;;;;;5067938;28;20024;-57
2022/01/29 07:57:59;;;;;;;8.52;4.60;;;128.50;2252.80;;;;;;5068179;28;20036;-60
2022/01/29 08:00:25;;;;;;;7.18;4.03;;;128.70;2252.80;;;;;;5069479;28;20044;-57
2022/01/29 08:02:51;;;;;;;9.82;4.70;;;154.10;2227.20;;;;;;5069730;28;20025;-56
2022/01/29 08:05:16;;;;;;;9.95;6.25;;;179.90;2022.40;;;;;;5069611;28;20020;-56
2022/01/29 08:07:42;;;;;;;12.68;4.80;;;205.30;1945.60;;;;;;5069861;28;20479;-63
2022/01/29 08:10:08;;;;;;;14.38;5.90;;;205.40;1920.00;;;;;;5071044;28;20033;-57
2022/01/29 08:12:34;;;;;;;15.88;6.40;;;205.20;1945.60;;;;;;5073802;28;20032;-56
2022/01/29 08:15:01;;;;;;;13.07;5.93;;;205.10;1971.20;;;;;;5073384;28;20367;-56
2022/01/29 08:17:27;;;;;;;29.50;21.05;;;180.10;2022.40;;;;;;5073044;28;20417;-56
2022/01/29 08:19:53;;;;;;;13.18;9.13;;;179.80;2073.60;;;;;;5073345;28;20025;-63
2022/01/29 08:22:18;;;;;;;8.10;4.47;;;179.50;2124.80;;;;;;5073108;28;20074;-57
2022/01/29 08:24:46;;;;;;;13.23;7.50;;;179.20;2201.60;;;;;;5072953;28;20093;-56
2022/01/29 08:27:12;;;;;;;12.10;4.82;;;154.40;2176.00;;;;;;5073286;28;20028;-64
2022/01/29 08:29:38;;;;;;;12.32;5.38;;;154.10;2252.80;;;;;;5071925;28;20082;-55
2022/01/29 08:32:04;;;;;;;7.45;3.65;;;154.00;2252.80;;;;;;5073096;28;20035;-64
2022/01/29 08:34:30;;;;;;;11.38;5.18;;;153.90;2252.80;;;;;;5073073;28;20028;-55
2022/01/29 08:37:02;;;;;;;6.53;4.25;;;153.90;2252.80;;;;;;5072525;28;20093;-55
2022/01/29 08:39:28;;;;;;;12.18;5.65;;;153.80;2252.80;;;;;;5072888;28;20093;-56
2022/01/29 08:41:55;;;;;;;10.82;5.25;;;153.90;2252.80;;;;;;5072738;28;20024;-56
2022/01/29 08:44:20;;;;;;;10.82;6.00;;;153.80;2252.80;;;;;;5073029;28;20067;-64
2022/01/29 08:46:46;;;;;;;12.20;6.95;;;153.70;2252.80;;;;;;5072721;28;20482;-63
2022/01/29 08:49:12;;;;;;;12.93;4.82;;;153.80;2252.80;;;;;;5072657;28;20119;-64
2022/01/29 08:51:38;;;;;;;12.23;6.15;;;153.90;2252.80;;;;;;5072804;28;20044;-63
2022/01/29 08:54:04;;;;;;;7.90;5.30;;;154.00;2252.80;;;;;;5072781;28;20827;-58
2022/01/29 08:56:30;;;;;;;8.80;4.35;;;154.00;2252.80;;;;;;5072806;28;20033;-61
2022/01/29 08:58:55;;;;;;;10.02;4.82;;;154.00;2252.80;;;;;;5072411;28;20024;-56
2022/01/29 09:01:21;;;;;;;8.52;4.00;;;154.00;2252.80;;;;;;5072654;28;20028;-56
2022/01/29 09:03:47;;;;;;;10.52;5.22;;;154.10;2252.80;;;;;;5071402;28;20024;-57
2022/01/29 09:06:13;;;;;;;10.00;5.60;;;154.10;2227.20;;;;;;5069706;28;20036;-56
2022/01/29 09:08:39;;;;;;;8.60;4.57;;;154.10;2252.80;;;;;;5070685;28;20017;-57
2022/01/29 09:11:06;;;;;;;7.65;4.65;;;154.00;2252.80;;;;;;5070201;28;20704;-59
2022/01/29 09:13:31;;;;;;;12.82;6.88;;;154.30;2227.20;;;;;;5070749;28;20023;-59
2022/01/29 09:15:58;;;;;;;21.08;12.95;;;154.30;2227.20;;;;;;5070423;28;20028;-60
2022/01/29 09:18:25;;;;;;;13.00;7.35;;;154.10;2252.80;;;;;;5070128;28;20033;-61
2022/01/29 09:20:51;;;;;;;7.55;4.38;;;154.10;2227.20;;;;;;5070341;28;20376;-65
2022/01/29 09:23:17;;;;;;;17.00;12.52;;;179.40;2150.40;;;;;;5070322;28;20035;-60
2022/01/29 09:25:43;;;;;;;8.90;5.35;;;205.30;1996.80;;;;;;5070475;28;20025;-64
2022/01/29 09:28:11;;;;;;;14.68;7.72;;;281.90;1766.40;;;;;;5070605;28;20052;-63
2022/01/29 09:30:37;;;;;;;10.60;4.57;;;282.50;1638.40;;;;;;5070671;28;20097;-61
2022/01/29 09:33:03;;;;;;;9.98;4.68;;;332.90;1561.60;;;;;;5072156;28;20518;-68
2022/01/29 09:35:29;;;;;;;8.65;4.53;;;358.50;1484.80;;;;;;5071677;28;20020;-62
2022/01/29 09:37:56;;;;;;;6.97;4.10;;;358.80;1408.00;;;;;;5071792;28;20029;-61
2022/01/29 09:40:22;;;;;;;9.07;4.68;;;333.20;1484.80;;;;;;5071761;28;20020;-61
2022/01/29 09:42:50;;;;;;;10.98;6.10;;;282.20;1561.60;;;;;;5071532;28;20081;-62
2022/01/29 09:45:21;;;;;;;11.02;6.50;;;282.50;1561.60;;;;;;5071513;28;20060;-62
2022/01/29 09:47:48;;;;;;;6.65;3.78;;;282.40;1561.60;;;;;;5071287;28;20086;-68
2022/01/29 09:50:17;;;;;;;7.00;3.97;;;282.00;1561.60;;;;;;5071150;28;20053;-61
2022/01/29 09:52:43;;;;;;;6.75;3.90;;;256.20;1612.80;;;;;;5071247;28;20547;-63
2022/01/29 09:55:10;;;;;;;109.45;15.32;;;256.80;1612.80;;;;;;5071502;28;20029;-64
2022/01/29 09:57:36;;;;;;;17.52;7.55;;;281.80;1612.80;;;;;;5071205;28;20032;-61
2022/01/29 10:00:04;;;;;;;13.82;9.75;;;256.50;1612.80;;;;;;5071298;28;20108;-60
2022/01/29 10:02:30;;;;;;;13.82;8.55;;;231.20;1664.00;;;;;;5071104;28;20463;-59
2022/01/29 10:04:57;;;;;;;10.73;6.55;;;230.60;1715.20;;;;;;5071084;28;20060;-60
2022/01/29 10:07:30;;;;;;;8.80;4.30;;;205.60;1766.40;;;;;;5071411;28;20097;-60
2022/01/29 10:09:58;;;;;;;12.40;5.45;;;205.50;1766.40;;;;;;5070871;28;20028;-64
2022/01/29 10:12:27;;;;;;;10.82;7.40;;;205.40;1792.00;;;;;;5071196;28;20039;-64
2022/01/29 10:14:58;;;;;;;10.27;6.45;;;205.20;1792.00;;;;;;5070700;28;20463;-66
2022/01/29 10:17:42;;;;;;;26.58;23.48;;;231.10;1715.20;;;;;;5070720;28;20154;-63
2022/01/29 10:20:12;;;;;;;8.77;4.63;;;256.20;1664.00;;;;;;5070949;28;20538;-66
2022/01/29 10:22:39;;;;;;;6.95;3.78;;;281.70;1612.80;;;;;;5070612;28;20085;-61
2022/01/29 10:25:16;;;;;;;7.53;5.00;;;281.80;1587.20;;;;;;5070768;28;20032;-62
2022/01/29 10:28:11;;;;;;;13.05;5.18;;;256.80;1587.20;;;;;;5070726;28;20115;-60
2022/01/29 10:30:49;;;;;;;11.40;4.53;;;256.20;1612.80;;;;;;5063879;28;20480;-67
2022/01/29 10:33:18;;;;;;;11.60;8.40;;;231.10;1664.00;;;;;;5069690;28;20028;-63
2022/01/29 10:35:49;;;;;;;8.48;7.05;;;230.70;1715.20;;;;;;5070539;28;20044;-60
2022/01/29 10:38:22;;;;;;;10.98;4.70;;;230.40;1740.80;;;;;;5070550;28;20020;-67
2022/01/29 10:41:09;;;;;;;10.18;4.72;;;205.50;1766.40;;;;;;5070157;28;20035;-59
2022/01/29 10:43:35;;;;;;;9.60;5.18;;;205.30;1766.40;;;;;;5068614;28;20035;-63
2022/01/29 10:46:01;;;;;;;8.23;6.13;;;205.20;1792.00;;;;;;5070448;28;20027;-56
2022/01/29 10:48:43;;;;;;;11.10;5.75;;;205.60;1766.40;;;;;;5070156;28;20032;-59
2022/01/29 10:51:13;;;;;;;9.73;5.20;;;205.60;1766.40;;;;;;5070343;28;20494;-61
2022/01/29 10:53:39;;;;;;;9.85;4.20;;;230.60;1715.20;;;;;;5070153;28;20025;-61
2022/01/29 10:56:04;;;;;;;6.07;2.65;;;205.40;1740.80;;;;;;5070352;28;20470;-60
2022/01/29 10:58:42;;;;;;;13.40;6.68;;;205.20;1792.00;;;;;;5070089;28;20025;-61
2022/01/29 11:01:16;;;;;;;9.70;5.05;;;205.20;1817.60;;;;;;5070244;28;20429;-61
2022/01/29 11:03:43;;;;;;;9.77;4.95;;;205.50;1766.40;;;;;;5068856;28;20414;-63
2022/01/29 11:06:13;;;;;;;7.57;4.43;;;205.70;1740.80;;;;;;5070056;28;20549;-60
2022/01/29 11:08:40;;;;;;;9.27;5.40;;;205.50;1766.40;;;;;;5070034;28;20382;-61
2022/01/29 11:11:07;;;;;;;20.75;11.15;;;205.40;1792.00;;;;;;5070091;28;20037;-61
2022/01/29 11:13:35;;;;;;;15.25;7.32;;;205.10;1817.60;;;;;;5070376;28;20021;-60
2022/01/29 11:16:03;;;;;;;27.27;15.38;;;205.10;1817.60;;;;;;5071893;28;20032;-64
2022/01/29 11:18:30;;;;;;;29.33;17.98;;;205.00;1817.60;;;;;;5072968;28;20032;-61
2022/01/29 11:20:56;;;;;;;31.90;16.55;;;204.80;1817.60;;;;;;5072977;28;20037;-62
2022/01/29 11:23:22;;;;;;;25.35;15.07;;;204.90;1843.20;;;;;;5072889;28;20032;-61
2022/01/29 11:25:53;;;;;;;22.38;10.30;;;204.80;1843.20;;;;;;5073109;28;20032;-61
2022/01/29 11:28:21;;;;;;;22.05;14.00;;;180.10;1843.20;;;;;;5072818;28;20028;-61
2022/01/29 11:31:15;;;;;;;23.30;14.00;;;180.10;1868.80;;;;;;5072707;28;20036;-62
2022/01/29 11:33:59;;;;;;;45.83;17.63;;;204.90;1792.00;;;;;;5072408;28;20033;-63
2022/01/29 11:36:43;;;;;;;;;;;205.00;1817.60;;;;;;5073095;28;20033;-62
2022/01/29 11:42:31;;;;;;;10.05;4.70;;;205.10;1715.20;;;;;;5072929;28;20103;-61
2022/01/29 11:45:18;;;;;;;6.72;3.83;;;205.30;1715.20;;;;;;5073899;28;20052;-62
2022/01/29 11:47:48;;;;;;;8.35;4.40;;;205.60;1715.20;;;;;;5075366;28;20085;-62
2022/01/29 11:50:27;;;;;;;14.63;8.77;;;205.70;1715.20;;;;;;5076464;28;20133;-61
2022/01/29 11:52:58;;;;;;;11.60;3.78;;;205.50;1740.80;;;;;;5076860;28;20025;-60
2022/01/29 11:58:46;;;;;;;11.02;4.72;;;205.60;1689.60;;;;;;5076327;28;20078;-59
2022/01/29 12:01:30;;;;;;;18.63;7.80;;;205.60;1638.40;;;;;;5076408;28;20025;-62
2022/01/29 12:03:59;;;;;;;13.98;5.97;;;205.00;1664.00;;;;;;5076682;28;20046;-62
2022/01/29 12:06:28;;;;;;;10.02;7.25;;;205.20;1664.00;;;;;;5074971;28;20094;-61
2022/01/29 12:15:26;;;;;;;12.43;7.47;;;205.20;1689.60;;;;;;5014563;28;20570;-60
2022/01/29 12:18:00;;;;;;;28.63;16.08;;;205.40;1664.00;;;;;;5014359;28;20062;-60
2022/01/29 12:20:28;;;;;;;16.23;10.90;;;205.40;1689.60;;;;;;5014528;28;20026;-60
2022/01/29 12:23:05;;;;;;;31.70;28.35;;;205.40;1689.60;;;;;;5014216;28;20036;-59
2022/01/29 12:25:31;;;;;;;25.85;19.45;;;205.30;1664.00;;;;;;5014242;28;20026;-60
2022/01/29 12:28:04;;;;;;;22.15;15.70;;;205.60;1664.00;;;;;;5014248;28;20037;-59
2022/01/29 12:30:35;;;;;;;25.70;10.35;;;205.40;1638.40;;;;;;5014258;28;20037;-62
2022/01/29 12:33:03;;;;;;;11.50;7.10;;;205.60;1638.40;;;;;;5014182;28;20092;-59
2022/01/29 12:35:49;;;;;;;10.52;6.78;;;205.60;1664.00;;;;;;5013954;28;20034;-59
2022/01/29 12:38:35;;;;;;;21.25;12.23;;;205.40;1638.40;;;;;;5014124;28;20022;-60